sensor_id;sensor_type;location;lat;lon;timestamp;P1;durP1;ratioP1;P2;durP2;ratioP2
11608;SDS011;5860;52.018;8.536;2022-11-20T00:01:08;31.17;;;19.97;;
11608;SDS011;5860;52.018;8.536;2022-11-20T00:03:43;31.77;;;20.43;;
11608;SDS011;5860;52.018;8.536;2022-11-20T00:06:12;31.73;;;20.13;;
11608;SDS011;5860;52.018;8.536;2022-11-20T00:08:41;32.80;;;19.50;;
11608;SDS011;5860;52.018;8.536;2022-11-20T00:11:10;29.43;;;19.03;;
11608;SDS011;5860;52.018;8.536;2022-11-20T00:13:41;27.00;;;17.80;;
11608;SDS011;5860;52.018;8.536;2022-11-20T00:16:10;30.40;;;18.03;;
11608;SDS011;5860;52.018;8.536;2022-11-20T00:18:38;31.60;;;19.03;;
11608;SDS011;5860;52.018;8.536;2022-11-20T00:21:07;32.13;;;19.47;;
11608;SDS011;5860;52.018;8.536;2022-11-20T00:23:41;25.07;;;16.50;;
11608;SDS011;5860;52.018;8.536;2022-11-20T00:26:12;28.23;;;17.30;;
11608;SDS011;5860;52.018;8.536;2022-11-20T00:28:41;26.53;;;18.30;;
11608;SDS011;5860;52.018;8.536;2022-11-20T00:31:09;28.13;;;17.43;;
11608;SDS011;5860;52.018;8.536;2022-11-20T00:33:38;28.27;;;18.23;;
11608;SDS011;5860;52.018;8.536;2022-11-20T00:36:06;27.87;;;18.20;;
11608;SDS011;5860;52.018;8.536;2022-11-20T00:38:35;33.67;;;19.00;;
11608;SDS011;5860;52.018;8.536;2022-11-20T00:41:03;31.00;;;19.67;;
11608;SDS011;5860;52.018;8.536;2022-11-20T00:43:32;32.17;;;20.13;;
11608;SDS011;5860;52.018;8.536;2022-11-20T00:46:06;27.63;;;18.97;;
11608;SDS011;5860;52.018;8.536;2022-11-20T00:48:44;26.57;;;17.30;;
11608;SDS011;5860;52.018;8.536;2022-11-20T00:51:14;29.60;;;18.37;;
11608;SDS011;5860;52.018;8.536;2022-11-20T00:53:43;25.73;;;16.70;;
11608;SDS011;5860;52.018;8.536;2022-11-20T00:56:11;28.20;;;18.33;;
11608;SDS011;5860;52.018;8.536;2022-11-20T00:58:40;29.00;;;18.27;;
11608;SDS011;5860;52.018;8.536;2022-11-20T01:01:10;31.50;;;18.97;;
11608;SDS011;5860;52.018;8.536;2022-11-20T01:03:40;32.43;;;20.30;;
11608;SDS011;5860;52.018;8.536;2022-11-20T01:06:10;29.93;;;19.00;;
11608;SDS011;5860;52.018;8.536;2022-11-20T01:08:37;31.17;;;19.60;;
11608;SDS011;5860;52.018;8.536;2022-11-20T01:11:05;28.87;;;19.90;;
11608;SDS011;5860;52.018;8.536;2022-11-20T01:13:53;31.23;;;20.07;;
11608;SDS011;5860;52.018;8.536;2022-11-20T01:16:22;30.67;;;19.50;;
11608;SDS011;5860;52.018;8.536;2022-11-20T01:18:52;30.50;;;19.57;;
11608;SDS011;5860;52.018;8.536;2022-11-20T01:21:21;31.47;;;20.70;;
11608;SDS011;5860;52.018;8.536;2022-11-20T01:23:53;31.40;;;19.00;;
11608;SDS011;5860;52.018;8.536;2022-11-20T01:26:21;28.37;;;18.87;;
11608;SDS011;5860;52.018;8.536;2022-11-20T01:28:50;29.20;;;18.43;;
11608;SDS011;5860;52.018;8.536;2022-11-20T01:31:20;31.10;;;19.87;;
11608;SDS011;5860;52.018;8.536;2022-11-20T01:33:48;27.10;;;18.90;;
11608;SDS011;5860;52.018;8.536;2022-11-20T01:36:18;29.73;;;18.83;;
11608;SDS011;5860;52.018;8.536;2022-11-20T01:38:47;27.93;;;19.13;;
11608;SDS011;5860;52.018;8.536;2022-11-20T01:41:16;29.57;;;18.90;;
11608;SDS011;5860;52.018;8.536;2022-11-20T01:44:02;30.07;;;18.97;;
11608;SDS011;5860;52.018;8.536;2022-11-20T01:46:31;29.27;;;19.23;;
11608;SDS011;5860;52.018;8.536;2022-11-20T01:49:02;28.97;;;18.27;;
11608;SDS011;5860;52.018;8.536;2022-11-20T01:54:22;29.97;;;18.90;;
11608;SDS011;5860;52.018;8.536;2022-11-20T01:57:02;41.53;;;23.13;;
11608;SDS011;5860;52.018;8.536;2022-11-20T01:59:32;35.50;;;20.37;;
11608;SDS011;5860;52.018;8.536;2022-11-20T02:02:00;30.63;;;18.47;;
11608;SDS011;5860;52.018;8.536;2022-11-20T02:04:27;27.10;;;17.83;;
11608;SDS011;5860;52.018;8.536;2022-11-20T02:06:58;25.93;;;16.83;;
11608;SDS011;5860;52.018;8.536;2022-11-20T02:09:27;26.47;;;17.33;;
11608;SDS011;5860;52.018;8.536;2022-11-20T02:11:54;25.77;;;17.20;;
11608;SDS011;5860;52.018;8.536;2022-11-20T02:14:22;30.23;;;17.23;;
11608;SDS011;5860;52.018;8.536;2022-11-20T02:16:50;25.90;;;17.70;;
11608;SDS011;5860;52.018;8.536;2022-11-20T02:24:38;27.83;;;17.20;;
11608;SDS011;5860;52.018;8.536;2022-11-20T02:27:07;27.50;;;18.03;;
11608;SDS011;5860;52.018;8.536;2022-11-20T02:34:49;28.40;;;16.87;;
11608;SDS011;5860;52.018;8.536;2022-11-20T02:37:16;28.30;;;17.57;;
11608;SDS011;5860;52.018;8.536;2022-11-20T02:39:44;26.93;;;16.77;;
11608;SDS011;5860;52.018;8.536;2022-11-20T02:42:13;26.10;;;17.23;;
11608;SDS011;5860;52.018;8.536;2022-11-20T02:44:40;32.70;;;19.80;;
11608;SDS011;5860;52.018;8.536;2022-11-20T02:47:08;31.10;;;18.60;;
11608;SDS011;5860;52.018;8.536;2022-11-20T02:49:35;34.83;;;19.97;;
11608;SDS011;5860;52.018;8.536;2022-11-20T02:52:02;28.57;;;18.37;;
11608;SDS011;5860;52.018;8.536;2022-11-20T02:54:29;29.17;;;18.80;;
11608;SDS011;5860;52.018;8.536;2022-11-20T02:56:56;29.97;;;19.00;;
11608;SDS011;5860;52.018;8.536;2022-11-20T02:59:22;28.97;;;18.13;;
11608;SDS011;5860;52.018;8.536;2022-11-20T03:01:49;30.97;;;18.67;;
11608;SDS011;5860;52.018;8.536;2022-11-20T03:04:16;30.10;;;18.10;;
11608;SDS011;5860;52.018;8.536;2022-11-20T03:06:43;30.50;;;19.63;;
11608;SDS011;5860;52.018;8.536;2022-11-20T03:09:10;29.53;;;18.67;;
11608;SDS011;5860;52.018;8.536;2022-11-20T03:11:37;30.93;;;20.03;;
11608;SDS011;5860;52.018;8.536;2022-11-20T03:14:04;29.60;;;19.17;;
11608;SDS011;5860;52.018;8.536;2022-11-20T03:16:31;28.20;;;18.57;;
11608;SDS011;5860;52.018;8.536;2022-11-20T03:18:59;30.27;;;18.57;;
11608;SDS011;5860;52.018;8.536;2022-11-20T03:21:26;25.93;;;17.43;;
11608;SDS011;5860;52.018;8.536;2022-11-20T03:23:54;29.60;;;18.80;;
11608;SDS011;5860;52.018;8.536;2022-11-20T03:26:22;26.57;;;17.70;;
11608;SDS011;5860;52.018;8.536;2022-11-20T03:28:57;32.30;;;18.37;;
11608;SDS011;5860;52.018;8.536;2022-11-20T03:31:27;29.10;;;18.20;;
11608;SDS011;5860;52.018;8.536;2022-11-20T03:33:55;28.17;;;17.83;;
11608;SDS011;5860;52.018;8.536;2022-11-20T03:36:23;25.77;;;17.63;;
11608;SDS011;5860;52.018;8.536;2022-11-20T03:38:50;23.93;;;17.40;;
11608;SDS011;5860;52.018;8.536;2022-11-20T03:41:20;27.47;;;17.00;;
11608;SDS011;5860;52.018;8.536;2022-11-20T03:43:55;28.77;;;17.60;;
11608;SDS011;5860;52.018;8.536;2022-11-20T03:46:27;28.50;;;17.47;;
11608;SDS011;5860;52.018;8.536;2022-11-20T03:48:54;26.37;;;16.83;;
11608;SDS011;5860;52.018;8.536;2022-11-20T03:51:22;27.00;;;17.23;;
11608;SDS011;5860;52.018;8.536;2022-11-20T03:53:51;24.70;;;16.87;;
11608;SDS011;5860;52.018;8.536;2022-11-20T03:56:22;25.50;;;16.73;;
11608;SDS011;5860;52.018;8.536;2022-11-20T03:58:50;23.57;;;16.33;;
11608;SDS011;5860;52.018;8.536;2022-11-20T04:01:18;24.77;;;16.27;;
11608;SDS011;5860;52.018;8.536;2022-11-20T04:03:47;23.80;;;15.50;;
11608;SDS011;5860;52.018;8.536;2022-11-20T04:08:48;23.47;;;15.07;;
11608;SDS011;5860;52.018;8.536;2022-11-20T04:11:23;26.23;;;15.63;;
11608;SDS011;5860;52.018;8.536;2022-11-20T04:13:54;24.60;;;16.27;;
11608;SDS011;5860;52.018;8.536;2022-11-20T04:16:26;24.60;;;16.30;;
11608;SDS011;5860;52.018;8.536;2022-11-20T04:18:56;25.80;;;16.07;;
11608;SDS011;5860;52.018;8.536;2022-11-20T04:21:25;26.73;;;16.90;;
11608;SDS011;5860;52.018;8.536;2022-11-20T04:23:53;26.80;;;16.40;;
11608;SDS011;5860;52.018;8.536;2022-11-20T04:26:21;22.07;;;15.80;;
11608;SDS011;5860;52.018;8.536;2022-11-20T04:28:49;24.13;;;16.10;;
11608;SDS011;5860;52.018;8.536;2022-11-20T04:31:16;25.27;;;16.07;;
11608;SDS011;5860;52.018;8.536;2022-11-20T04:33:45;23.70;;;15.67;;
11608;SDS011;5860;52.018;8.536;2022-11-20T04:36:12;24.67;;;16.43;;
11608;SDS011;5860;52.018;8.536;2022-11-20T04:38:43;24.20;;;16.57;;
11608;SDS011;5860;52.018;8.536;2022-11-20T04:41:15;24.20;;;16.67;;
11608;SDS011;5860;52.018;8.536;2022-11-20T04:43:50;29.33;;;17.50;;
11608;SDS011;5860;52.018;8.536;2022-11-20T04:46:19;27.47;;;17.53;;
11608;SDS011;5860;52.018;8.536;2022-11-20T04:48:47;26.77;;;16.90;;
11608;SDS011;5860;52.018;8.536;2022-11-20T04:51:14;24.37;;;16.73;;
11608;SDS011;5860;52.018;8.536;2022-11-20T04:53:41;25.10;;;17.20;;
11608;SDS011;5860;52.018;8.536;2022-11-20T04:56:08;24.20;;;16.27;;
11608;SDS011;5860;52.018;8.536;2022-11-20T04:58:37;25.23;;;16.43;;
11608;SDS011;5860;52.018;8.536;2022-11-20T05:03:39;25.70;;;16.03;;
11608;SDS011;5860;52.018;8.536;2022-11-20T05:06:08;23.60;;;16.00;;
11608;SDS011;5860;52.018;8.536;2022-11-20T05:08:36;22.80;;;14.97;;
11608;SDS011;5860;52.018;8.536;2022-11-20T05:11:07;22.97;;;14.60;;
11608;SDS011;5860;52.018;8.536;2022-11-20T05:13:35;27.33;;;15.93;;
11608;SDS011;5860;52.018;8.536;2022-11-20T05:16:22;24.57;;;15.37;;
11608;SDS011;5860;52.018;8.536;2022-11-20T05:18:50;23.23;;;16.00;;
11608;SDS011;5860;52.018;8.536;2022-11-20T05:21:18;24.10;;;15.30;;
11608;SDS011;5860;52.018;8.536;2022-11-20T05:23:46;26.20;;;15.37;;
11608;SDS011;5860;52.018;8.536;2022-11-20T05:26:20;22.47;;;14.93;;
11608;SDS011;5860;52.018;8.536;2022-11-20T05:28:48;24.90;;;16.10;;
11608;SDS011;5860;52.018;8.536;2022-11-20T05:31:26;22.33;;;15.07;;
11608;SDS011;5860;52.018;8.536;2022-11-20T05:33:54;21.17;;;14.20;;
11608;SDS011;5860;52.018;8.536;2022-11-20T05:36:22;22.23;;;14.13;;
11608;SDS011;5860;52.018;8.536;2022-11-20T05:38:49;24.03;;;15.37;;
11608;SDS011;5860;52.018;8.536;2022-11-20T05:41:19;21.57;;;14.10;;
11608;SDS011;5860;52.018;8.536;2022-11-20T05:43:47;22.03;;;14.67;;
11608;SDS011;5860;52.018;8.536;2022-11-20T05:46:16;21.87;;;14.07;;
11608;SDS011;5860;52.018;8.536;2022-11-20T05:48:54;22.63;;;14.10;;
11608;SDS011;5860;52.018;8.536;2022-11-20T05:51:21;20.73;;;14.03;;
11608;SDS011;5860;52.018;8.536;2022-11-20T05:53:48;19.47;;;13.10;;
11608;SDS011;5860;52.018;8.536;2022-11-20T05:56:17;21.57;;;13.20;;
11608;SDS011;5860;52.018;8.536;2022-11-20T05:58:45;20.47;;;13.10;;
11608;SDS011;5860;52.018;8.536;2022-11-20T06:01:14;17.67;;;11.70;;
11608;SDS011;5860;52.018;8.536;2022-11-20T06:03:41;16.43;;;11.13;;
11608;SDS011;5860;52.018;8.536;2022-11-20T06:06:12;15.63;;;10.57;;
11608;SDS011;5860;52.018;8.536;2022-11-20T06:08:40;18.53;;;10.83;;
11608;SDS011;5860;52.018;8.536;2022-11-20T06:11:08;17.73;;;11.67;;
11608;SDS011;5860;52.018;8.536;2022-11-20T06:13:38;18.97;;;11.77;;
11608;SDS011;5860;52.018;8.536;2022-11-20T06:16:08;15.07;;;10.40;;
11608;SDS011;5860;52.018;8.536;2022-11-20T06:18:36;15.13;;;10.23;;
11608;SDS011;5860;52.018;8.536;2022-11-20T06:21:07;17.10;;;9.40;;
11608;SDS011;5860;52.018;8.536;2022-11-20T06:23:36;13.10;;;9.20;;
11608;SDS011;5860;52.018;8.536;2022-11-20T06:26:03;13.23;;;8.53;;
11608;SDS011;5860;52.018;8.536;2022-11-20T06:28:35;16.60;;;9.20;;
11608;SDS011;5860;52.018;8.536;2022-11-20T06:31:02;12.60;;;8.23;;
11608;SDS011;5860;52.018;8.536;2022-11-20T06:33:30;15.20;;;9.33;;
11608;SDS011;5860;52.018;8.536;2022-11-20T06:35:57;14.03;;;8.90;;
11608;SDS011;5860;52.018;8.536;2022-11-20T06:38:30;15.03;;;8.63;;
11608;SDS011;5860;52.018;8.536;2022-11-20T06:40:57;13.07;;;8.23;;
11608;SDS011;5860;52.018;8.536;2022-11-20T06:43:24;13.57;;;8.13;;
11608;SDS011;5860;52.018;8.536;2022-11-20T06:45:55;13.40;;;8.10;;
11608;SDS011;5860;52.018;8.536;2022-11-20T06:48:23;12.37;;;8.33;;
11608;SDS011;5860;52.018;8.536;2022-11-20T06:50:51;12.30;;;8.27;;
11608;SDS011;5860;52.018;8.536;2022-11-20T06:53:18;12.83;;;7.57;;
11608;SDS011;5860;52.018;8.536;2022-11-20T06:55:46;12.27;;;8.03;;
11608;SDS011;5860;52.018;8.536;2022-11-20T06:58:13;11.37;;;8.47;;
11608;SDS011;5860;52.018;8.536;2022-11-20T07:00:41;11.80;;;7.93;;
11608;SDS011;5860;52.018;8.536;2022-11-20T07:03:09;13.10;;;8.00;;
11608;SDS011;5860;52.018;8.536;2022-11-20T07:05:37;12.97;;;8.50;;
11608;SDS011;5860;52.018;8.536;2022-11-20T07:08:07;13.30;;;9.30;;
11608;SDS011;5860;52.018;8.536;2022-11-20T07:10:34;17.90;;;11.03;;
11608;SDS011;5860;52.018;8.536;2022-11-20T07:13:01;20.70;;;11.70;;
11608;SDS011;5860;52.018;8.536;2022-11-20T07:15:28;22.53;;;12.43;;
11608;SDS011;5860;52.018;8.536;2022-11-20T07:17:58;22.57;;;12.97;;
11608;SDS011;5860;52.018;8.536;2022-11-20T07:20:25;22.80;;;12.77;;
11608;SDS011;5860;52.018;8.536;2022-11-20T07:22:53;24.43;;;14.33;;
11608;SDS011;5860;52.018;8.536;2022-11-20T07:25:24;26.73;;;14.37;;
11608;SDS011;5860;52.018;8.536;2022-11-20T07:27:52;24.60;;;13.93;;
11608;SDS011;5860;52.018;8.536;2022-11-20T07:30:19;26.60;;;13.67;;
11608;SDS011;5860;52.018;8.536;2022-11-20T07:32:46;32.07;;;15.73;;
11608;SDS011;5860;52.018;8.536;2022-11-20T07:35:16;30.40;;;15.67;;
11608;SDS011;5860;52.018;8.536;2022-11-20T07:37:43;27.13;;;15.50;;
11608;SDS011;5860;52.018;8.536;2022-11-20T07:40:12;36.13;;;17.83;;
11608;SDS011;5860;52.018;8.536;2022-11-20T07:42:46;32.47;;;16.13;;
11608;SDS011;5860;52.018;8.536;2022-11-20T07:45:17;40.47;;;18.37;;
11608;SDS011;5860;52.018;8.536;2022-11-20T07:47:44;37.17;;;17.50;;
11608;SDS011;5860;52.018;8.536;2022-11-20T07:50:12;39.03;;;18.67;;
11608;SDS011;5860;52.018;8.536;2022-11-20T07:52:39;36.50;;;17.27;;
11608;SDS011;5860;52.018;8.536;2022-11-20T07:55:07;34.23;;;18.60;;
11608;SDS011;5860;52.018;8.536;2022-11-20T07:57:34;39.33;;;19.47;;
11608;SDS011;5860;52.018;8.536;2022-11-20T08:00:03;32.40;;;17.40;;
11608;SDS011;5860;52.018;8.536;2022-11-20T08:02:31;33.63;;;18.60;;
11608;SDS011;5860;52.018;8.536;2022-11-20T08:04:58;32.70;;;17.77;;
11608;SDS011;5860;52.018;8.536;2022-11-20T08:07:25;34.30;;;18.33;;
11608;SDS011;5860;52.018;8.536;2022-11-20T08:09:52;28.20;;;17.23;;
11608;SDS011;5860;52.018;8.536;2022-11-20T08:12:19;26.33;;;17.07;;
11608;SDS011;5860;52.018;8.536;2022-11-20T08:15:05;26.50;;;15.97;;
11608;SDS011;5860;52.018;8.536;2022-11-20T08:17:38;24.67;;;16.57;;
11608;SDS011;5860;52.018;8.536;2022-11-20T08:20:05;26.23;;;17.20;;
11608;SDS011;5860;52.018;8.536;2022-11-20T08:22:32;24.03;;;15.63;;
11608;SDS011;5860;52.018;8.536;2022-11-20T08:24:59;23.17;;;16.07;;
11608;SDS011;5860;52.018;8.536;2022-11-20T08:27:26;24.00;;;15.33;;
11608;SDS011;5860;52.018;8.536;2022-11-20T08:29:53;21.43;;;15.10;;
11608;SDS011;5860;52.018;8.536;2022-11-20T08:32:20;17.03;;;11.63;;
11608;SDS011;5860;52.018;8.536;2022-11-20T08:34:47;22.87;;;14.23;;
11608;SDS011;5860;52.018;8.536;2022-11-20T08:37:14;18.03;;;12.07;;
11608;SDS011;5860;52.018;8.536;2022-11-20T08:39:40;18.77;;;12.63;;
11608;SDS011;5860;52.018;8.536;2022-11-20T08:42:07;20.07;;;13.83;;
11608;SDS011;5860;52.018;8.536;2022-11-20T08:44:34;18.00;;;12.43;;
11608;SDS011;5860;52.018;8.536;2022-11-20T08:47:01;19.47;;;12.80;;
11608;SDS011;5860;52.018;8.536;2022-11-20T08:49:28;25.33;;;15.57;;
11608;SDS011;5860;52.018;8.536;2022-11-20T08:51:55;29.73;;;18.63;;
11608;SDS011;5860;52.018;8.536;2022-11-20T08:54:22;30.37;;;19.67;;
11608;SDS011;5860;52.018;8.536;2022-11-20T08:56:49;34.03;;;21.27;;
11608;SDS011;5860;52.018;8.536;2022-11-20T08:59:16;36.00;;;22.03;;
11608;SDS011;5860;52.018;8.536;2022-11-20T09:02:03;31.33;;;19.33;;
11608;SDS011;5860;52.018;8.536;2022-11-20T09:04:30;28.33;;;17.77;;
11608;SDS011;5860;52.018;8.536;2022-11-20T09:06:57;23.70;;;15.27;;
11608;SDS011;5860;52.018;8.536;2022-11-20T09:09:26;24.30;;;15.03;;
11608;SDS011;5860;52.018;8.536;2022-11-20T09:11:53;27.93;;;15.83;;
11608;SDS011;5860;52.018;8.536;2022-11-20T09:14:20;28.10;;;16.07;;
11608;SDS011;5860;52.018;8.536;2022-11-20T09:16:47;21.50;;;13.90;;
11608;SDS011;5860;52.018;8.536;2022-11-20T09:19:14;22.60;;;12.60;;
11608;SDS011;5860;52.018;8.536;2022-11-20T09:22:01;14.73;;;9.97;;
11608;SDS011;5860;52.018;8.536;2022-11-20T09:24:28;12.00;;;8.60;;
11608;SDS011;5860;52.018;8.536;2022-11-20T09:26:56;10.93;;;8.00;;
11608;SDS011;5860;52.018;8.536;2022-11-20T09:29:22;10.90;;;8.13;;
11608;SDS011;5860;52.018;8.536;2022-11-20T09:31:49;10.10;;;7.77;;
11608;SDS011;5860;52.018;8.536;2022-11-20T09:34:16;9.97;;;7.57;;
11608;SDS011;5860;52.018;8.536;2022-11-20T09:36:43;12.40;;;7.30;;
11608;SDS011;5860;52.018;8.536;2022-11-20T09:39:11;10.33;;;7.83;;
11608;SDS011;5860;52.018;8.536;2022-11-20T09:47:10;10.77;;;7.97;;
11608;SDS011;5860;52.018;8.536;2022-11-20T09:55:11;9.53;;;6.90;;
11608;SDS011;5860;52.018;8.536;2022-11-20T09:57:40;10.23;;;8.00;;
11608;SDS011;5860;52.018;8.536;2022-11-20T10:00:12;12.23;;;8.50;;
11608;SDS011;5860;52.018;8.536;2022-11-20T10:05:25;15.00;;;9.97;;
11608;SDS011;5860;52.018;8.536;2022-11-20T10:10:47;14.97;;;9.90;;
11608;SDS011;5860;52.018;8.536;2022-11-20T10:24:55;13.60;;;9.90;;
11608;SDS011;5860;52.018;8.536;2022-11-20T10:27:33;14.20;;;10.30;;
11608;SDS011;5860;52.018;8.536;2022-11-20T10:30:19;14.47;;;10.10;;
11608;SDS011;5860;52.018;8.536;2022-11-20T10:32:54;13.33;;;10.07;;
11608;SDS011;5860;52.018;8.536;2022-11-20T10:35:41;14.20;;;9.97;;
11608;SDS011;5860;52.018;8.536;2022-11-20T10:38:19;13.80;;;9.37;;
11608;SDS011;5860;52.018;8.536;2022-11-20T10:40:52;13.73;;;9.37;;
11608;SDS011;5860;52.018;8.536;2022-11-20T10:43:46;13.37;;;9.33;;
11608;SDS011;5860;52.018;8.536;2022-11-20T10:46:20;14.30;;;10.10;;
11608;SDS011;5860;52.018;8.536;2022-11-20T10:48:48;16.17;;;10.70;;
11608;SDS011;5860;52.018;8.536;2022-11-20T11:00:03;13.87;;;8.83;;
11608;SDS011;5860;52.018;8.536;2022-11-20T11:05:24;12.70;;;8.77;;
11608;SDS011;5860;52.018;8.536;2022-11-20T11:07:59;12.83;;;9.27;;
11608;SDS011;5860;52.018;8.536;2022-11-20T11:10:36;8.73;;;6.47;;
11608;SDS011;5860;52.018;8.536;2022-11-20T11:13:20;13.07;;;9.23;;
11608;SDS011;5860;52.018;8.536;2022-11-20T11:15:52;10.83;;;8.23;;
11608;SDS011;5860;52.018;8.536;2022-11-20T11:18:26;11.33;;;8.20;;
11608;SDS011;5860;52.018;8.536;2022-11-20T11:21:00;10.77;;;8.10;;
11608;SDS011;5860;52.018;8.536;2022-11-20T11:25:59;13.10;;;9.63;;
11608;SDS011;5860;52.018;8.536;2022-11-20T11:28:27;9.73;;;8.20;;
11608;SDS011;5860;52.018;8.536;2022-11-20T11:30:54;13.87;;;9.73;;
11608;SDS011;5860;52.018;8.536;2022-11-20T11:33:23;11.53;;;8.63;;
11608;SDS011;5860;52.018;8.536;2022-11-20T11:35:52;11.40;;;8.17;;
11608;SDS011;5860;52.018;8.536;2022-11-20T11:41:04;12.03;;;8.40;;
11608;SDS011;5860;52.018;8.536;2022-11-20T11:43:32;10.90;;;8.20;;
11608;SDS011;5860;52.018;8.536;2022-11-20T11:51:29;23.53;;;8.20;;
11608;SDS011;5860;52.018;8.536;2022-11-20T11:54:18;11.90;;;7.70;;
11608;SDS011;5860;52.018;8.536;2022-11-20T11:56:48;10.13;;;7.67;;
11608;SDS011;5860;52.018;8.536;2022-11-20T11:59:22;11.47;;;8.13;;
11608;SDS011;5860;52.018;8.536;2022-11-20T12:01:56;12.73;;;7.47;;
11608;SDS011;5860;52.018;8.536;2022-11-20T12:04:48;9.13;;;6.93;;
11608;SDS011;5860;52.018;8.536;2022-11-20T12:10:17;10.13;;;6.57;;
11608;SDS011;5860;52.018;8.536;2022-11-20T12:12:46;9.03;;;6.73;;
11608;SDS011;5860;52.018;8.536;2022-11-20T12:15:23;9.77;;;7.00;;
11608;SDS011;5860;52.018;8.536;2022-11-20T12:17:55;11.43;;;8.03;;
11608;SDS011;5860;52.018;8.536;2022-11-20T12:20:24;13.23;;;9.50;;
11608;SDS011;5860;52.018;8.536;2022-11-20T12:25:36;9.87;;;7.87;;
11608;SDS011;5860;52.018;8.536;2022-11-20T12:31:08;12.27;;;8.07;;
11608;SDS011;5860;52.018;8.536;2022-11-20T12:36:48;11.10;;;8.13;;
11608;SDS011;5860;52.018;8.536;2022-11-20T12:42:35;12.13;;;7.83;;
11608;SDS011;5860;52.018;8.536;2022-11-20T12:48:17;10.87;;;7.93;;
11608;SDS011;5860;52.018;8.536;2022-11-20T12:54:13;13.30;;;8.13;;
11608;SDS011;5860;52.018;8.536;2022-11-20T12:56:58;11.63;;;8.63;;
11608;SDS011;5860;52.018;8.536;2022-11-20T13:05:19;11.20;;;7.57;;
11608;SDS011;5860;52.018;8.536;2022-11-20T13:08:08;12.60;;;8.03;;
11608;SDS011;5860;52.018;8.536;2022-11-20T13:16:05;10.97;;;7.90;;
11608;SDS011;5860;52.018;8.536;2022-11-20T13:18:39;10.47;;;7.67;;
11608;SDS011;5860;52.018;8.536;2022-11-20T13:21:15;10.43;;;7.67;;
11608;SDS011;5860;52.018;8.536;2022-11-20T13:24:05;10.57;;;7.13;;
11608;SDS011;5860;52.018;8.536;2022-11-20T13:27:05;13.20;;;8.23;;
11608;SDS011;5860;52.018;8.536;2022-11-20T13:29:58;11.67;;;8.27;;
11608;SDS011;5860;52.018;8.536;2022-11-20T13:32:27;11.20;;;7.33;;
11608;SDS011;5860;52.018;8.536;2022-11-20T13:35:03;11.63;;;8.03;;
11608;SDS011;5860;52.018;8.536;2022-11-20T13:45:41;11.00;;;7.80;;
11608;SDS011;5860;52.018;8.536;2022-11-20T13:48:21;13.47;;;8.20;;
11608;SDS011;5860;52.018;8.536;2022-11-20T13:53:32;13.00;;;8.93;;
11608;SDS011;5860;52.018;8.536;2022-11-20T14:02:13;12.33;;;8.43;;
11608;SDS011;5860;52.018;8.536;2022-11-20T14:04:43;13.80;;;9.57;;
11608;SDS011;5860;52.018;8.536;2022-11-20T14:07:13;15.60;;;9.70;;
11608;SDS011;5860;52.018;8.536;2022-11-20T14:12:22;14.93;;;10.23;;
11608;SDS011;5860;52.018;8.536;2022-11-20T14:14:57;16.77;;;10.27;;
11608;SDS011;5860;52.018;8.536;2022-11-20T14:19:57;18.23;;;10.73;;
11608;SDS011;5860;52.018;8.536;2022-11-20T14:22:30;14.33;;;10.97;;
11608;SDS011;5860;52.018;8.536;2022-11-20T14:25:05;15.27;;;10.73;;
11608;SDS011;5860;52.018;8.536;2022-11-20T14:27:48;16.23;;;10.57;;
11608;SDS011;5860;52.018;8.536;2022-11-20T14:30:23;18.43;;;11.83;;
11608;SDS011;5860;52.018;8.536;2022-11-20T14:32:53;16.30;;;11.77;;
11608;SDS011;5860;52.018;8.536;2022-11-20T14:35:30;18.50;;;11.30;;
11608;SDS011;5860;52.018;8.536;2022-11-20T14:38:02;16.97;;;11.30;;
11608;SDS011;5860;52.018;8.536;2022-11-20T14:40:30;17.93;;;12.50;;
11608;SDS011;5860;52.018;8.536;2022-11-20T14:43:01;18.00;;;11.80;;
11608;SDS011;5860;52.018;8.536;2022-11-20T14:45:42;18.27;;;12.43;;
11608;SDS011;5860;52.018;8.536;2022-11-20T14:48:12;16.53;;;10.30;;
11608;SDS011;5860;52.018;8.536;2022-11-20T14:50:40;16.27;;;11.43;;
11608;SDS011;5860;52.018;8.536;2022-11-20T14:53:07;19.57;;;11.87;;
11608;SDS011;5860;52.018;8.536;2022-11-20T14:55:35;17.27;;;12.03;;
11608;SDS011;5860;52.018;8.536;2022-11-20T14:58:05;17.33;;;12.43;;
11608;SDS011;5860;52.018;8.536;2022-11-20T15:00:54;18.93;;;11.93;;
11608;SDS011;5860;52.018;8.536;2022-11-20T15:03:23;18.67;;;12.50;;
11608;SDS011;5860;52.018;8.536;2022-11-20T15:05:57;18.43;;;12.67;;
11608;SDS011;5860;52.018;8.536;2022-11-20T15:08:24;17.53;;;11.77;;
11608;SDS011;5860;52.018;8.536;2022-11-20T15:10:51;17.63;;;12.97;;
11608;SDS011;5860;52.018;8.536;2022-11-20T15:15:55;22.43;;;13.97;;
11608;SDS011;5860;52.018;8.536;2022-11-20T15:18:26;18.17;;;13.00;;
11608;SDS011;5860;52.018;8.536;2022-11-20T15:20:59;19.50;;;12.90;;
11608;SDS011;5860;52.018;8.536;2022-11-20T15:23:29;17.80;;;12.60;;
11608;SDS011;5860;52.018;8.536;2022-11-20T15:25:56;20.70;;;12.60;;
11608;SDS011;5860;52.018;8.536;2022-11-20T15:28:29;18.97;;;12.23;;
11608;SDS011;5860;52.018;8.536;2022-11-20T15:30:59;17.10;;;11.30;;
11608;SDS011;5860;52.018;8.536;2022-11-20T15:33:27;15.20;;;10.60;;
11608;SDS011;5860;52.018;8.536;2022-11-20T15:35:54;17.47;;;11.50;;
11608;SDS011;5860;52.018;8.536;2022-11-20T15:38:21;15.80;;;10.83;;
11608;SDS011;5860;52.018;8.536;2022-11-20T15:40:48;15.40;;;10.53;;
11608;SDS011;5860;52.018;8.536;2022-11-20T15:43:15;15.60;;;9.83;;
11608;SDS011;5860;52.018;8.536;2022-11-20T15:45:44;14.70;;;10.73;;
11608;SDS011;5860;52.018;8.536;2022-11-20T15:48:41;16.87;;;10.10;;
11608;SDS011;5860;52.018;8.536;2022-11-20T15:51:29;13.87;;;9.53;;
11608;SDS011;5860;52.018;8.536;2022-11-20T15:53:59;14.80;;;10.23;;
11608;SDS011;5860;52.018;8.536;2022-11-20T15:56:26;14.93;;;10.27;;
11608;SDS011;5860;52.018;8.536;2022-11-20T15:58:53;14.93;;;10.27;;
11608;SDS011;5860;52.018;8.536;2022-11-20T16:01:21;15.30;;;9.50;;
11608;SDS011;5860;52.018;8.536;2022-11-20T16:03:48;13.70;;;10.13;;
11608;SDS011;5860;52.018;8.536;2022-11-20T16:06:15;13.10;;;9.33;;
11608;SDS011;5860;52.018;8.536;2022-11-20T16:08:42;15.80;;;10.93;;
11608;SDS011;5860;52.018;8.536;2022-11-20T16:11:13;16.63;;;11.10;;
11608;SDS011;5860;52.018;8.536;2022-11-20T16:13:41;16.07;;;11.03;;
11608;SDS011;5860;52.018;8.536;2022-11-20T16:16:36;18.23;;;11.53;;
11608;SDS011;5860;52.018;8.536;2022-11-20T16:19:09;15.10;;;10.07;;
11608;SDS011;5860;52.018;8.536;2022-11-20T16:21:40;19.07;;;11.97;;
11608;SDS011;5860;52.018;8.536;2022-11-20T16:24:08;17.10;;;10.67;;
11608;SDS011;5860;52.018;8.536;2022-11-20T16:26:39;16.67;;;11.10;;
11608;SDS011;5860;52.018;8.536;2022-11-20T16:29:07;18.03;;;11.73;;
11608;SDS011;5860;52.018;8.536;2022-11-20T16:31:35;17.00;;;11.43;;
11608;SDS011;5860;52.018;8.536;2022-11-20T16:34:03;14.37;;;10.03;;
11608;SDS011;5860;52.018;8.536;2022-11-20T16:36:40;15.33;;;10.83;;
11608;SDS011;5860;52.018;8.536;2022-11-20T16:39:08;17.80;;;11.87;;
11608;SDS011;5860;52.018;8.536;2022-11-20T16:41:35;16.27;;;11.10;;
11608;SDS011;5860;52.018;8.536;2022-11-20T16:44:06;16.07;;;11.17;;
11608;SDS011;5860;52.018;8.536;2022-11-20T16:46:35;14.73;;;10.57;;
11608;SDS011;5860;52.018;8.536;2022-11-20T16:49:04;14.73;;;10.07;;
11608;SDS011;5860;52.018;8.536;2022-11-20T16:51:38;15.13;;;11.30;;
11608;SDS011;5860;52.018;8.536;2022-11-20T16:54:05;19.13;;;12.03;;
11608;SDS011;5860;52.018;8.536;2022-11-20T16:56:34;19.00;;;12.47;;
11608;SDS011;5860;52.018;8.536;2022-11-20T16:59:01;19.00;;;11.10;;
11608;SDS011;5860;52.018;8.536;2022-11-20T17:01:28;17.70;;;12.10;;
11608;SDS011;5860;52.018;8.536;2022-11-20T17:04:03;17.03;;;11.23;;